M I D A S
Marine Information and Data Acquisition System
Tripno 691 of the Zeeleeuw from 2004-04-29 07:42:40 to 2004-04-29 16:05:36
Back to CruiseResearch ActivitiesStationsMapUnderway DataData graphs

EquipmentUnitsComment
TimeDGPSUTC
LatitudeDGPSDM.mWGS84
LongitudeDGPSDM.mWGS84
TemperatureSBE03/SBE38deg celciusITS90
ConductivitySBE21S/mITS90
SalinitySBE21 Practical Salinity Units
ChlorophylAChelsea fluorimeterg/lCalibrated in Aceton
Missing or incorrect values are displayed as -999
Sea surface data collected by the RV Zeeleeuw from 2004-04-29 07:42:40 to 2004-04-29 16:05:36
Time Latitude Longitude Temperature Conductivity Salinity ChlorophylA
2004-04-29 07:43:43 51°14.273 2°54.262 11.9002 3.605625 31.040517 68.120768
2004-04-29 07:44:43 51°14.182 2°53.962 11.846184 3.623644 31.279558 68.120768
2004-04-29 07:45:42 51°14.093 2°53.667 11.865972 3.625541 31.310331 68.154477
2004-04-29 07:46:42 51°14.003 2°53.365 11.902159 3.630177 31.328988 68.120768
2004-04-29 07:47:42 51°13.913 2°53.062 11.834645 3.631863 31.315381 68.154477
2004-04-29 07:48:42 51°13.825 2°52.757 11.772358 3.64061 31.488298 68.087059
2004-04-29 07:49:42 51°13.734 2°52.454 11.785733 3.641453 31.525783 68.087059
2004-04-29 07:50:42 51°13.639 2°52.155 11.728928 3.6404 31.53102 68.087059
2004-04-29 07:51:42 51°13.544 2°51.856 11.775737 3.638503 31.506745 68.120768
2004-04-29 07:52:43 51°13.446 2°51.554 11.772587 3.651148 31.619765 68.087059
2004-04-29 07:53:42 51°13.347 2°51.267 11.768752 3.654099 31.655556 68.120768
2004-04-29 07:54:42 51°13.249 2°50.972 11.79979 3.653888 31.63407 68.087059
2004-04-29 07:55:42 51°13.146 2°50.679 11.828351 3.662739 31.706513 68.120768
2004-04-29 07:56:42 51°13.045 2°50.384 11.84664 3.669378 31.750911 68.087059
2004-04-29 07:57:42 51°12.943 2°50.088 11.865242 3.670537 31.744591 68.154477
2004-04-29 07:58:42 51°12.845 2°49.791 11.859316 3.6757 31.784836 68.120768
2004-04-29 07:59:42 51°12.743 2°49.496 11.803304 3.680443 31.859417 68.087059
2004-04-29 08:00:42 51°12.645 2°49.195 11.80052 3.686661 31.942275 68.087059
2004-04-29 08:01:42 51°12.548 2°48.894 11.832365 3.690243 31.965964 68.154477
2004-04-29 08:02:42 51°12.457 2°48.588 11.86547 3.690875 31.946341 68.120768
2004-04-29 08:03:42 51°12.371 2°48.278 11.902159 3.699833 32.004139 68.154477
2004-04-29 08:04:42 51°12.285 2°47.967 11.917649 3.713743 32.111542 68.120768
2004-04-29 08:05:42 51°12.2 2°47.655 11.940421 3.716061 32.123666 68.120768
2004-04-29 08:06:43 51°12.114 2°47.336 11.964734 3.720487 32.13909 68.154477
2004-04-29 08:07:42 51°12.03 2°47.028 11.997227 3.725019 32.169073 68.154477
2004-04-29 08:08:42 51°11.945 2°46.715 12.020018 3.748415 32.358501 68.154477
2004-04-29 08:09:42 51°11.86 2°46.402 12.024657 3.752314 32.388463 68.120768
2004-04-29 08:10:42 51°11.776 2°46.086 12.01788 3.743777 32.309191 68.188187
2004-04-29 08:11:43 51°11.693 2°45.763 12.033843 3.744621 32.313886 68.255606
2004-04-29 08:12:42 51°11.613 2°45.451 12.068802 3.748204 32.33196 68.221896
2004-04-29 08:13:42 51°11.533 2°45.134 12.111738 3.759269 32.399353 68.221896
2004-04-29 08:14:42 51°11.452 2°44.817 12.138938 3.768649 32.460014 63.098067
2004-04-29 08:15:43 51°11.37 2°44.495 12.190403 3.793627 32.657113 52.884118
2004-04-29 08:16:40 51°11.294 2°44.196 12.186002 3.806802 32.768313 51.468324
2004-04-29 08:17:42 51°11.211 2°43.871 12.249171 3.813336 32.82546 53.625725
2004-04-29 08:18:42 51°11.134 2°43.552 12.247041 3.821662 32.86536 46.917554
2004-04-29 08:19:42 51°11.057 2°43.234 12.264534 3.820397 32.841562 39.366648
2004-04-29 08:20:43 51°10.978 2°42.909 12.293394 3.833151 32.935459 33.63605
2004-04-29 08:21:42 51°10.902 2°42.595 12.352704 3.849593 33.066635 27.905452
2004-04-29 08:22:42 51°10.823 2°42.277 12.371437 3.876366 33.278533 21.500665
2004-04-29 08:23:43 51°10.742 2°41.958 12.318302 3.894813 33.464172 17.994888
2004-04-29 08:24:42 51°10.663 2°41.652 12.211449 3.909466 33.663555 11.859777
2004-04-29 08:25:42 51°10.584 2°41.339 12.074347 3.925175 33.942879 16.140871
2004-04-29 08:26:43 51°10.507 2°41.018 12.00619 3.928655 34.065861 31.984289
2004-04-29 08:27:42 51°10.433 2°40.708 11.970241 3.926336 34.090823 41.321794
2004-04-29 08:28:43 51°10.359 2°40.385 11.934365 3.923596 34.105291 43.445486
2004-04-29 08:29:42 51°10.283 2°40.074 11.931495 3.923385 34.120545 43.310648
2004-04-29 08:30:42 51°10.204 2°39.76 11.945521 3.924861 34.133418 39.096973
2004-04-29 08:31:42 51°10.126 2°39.447 11.946569 3.927918 34.154413 28.512221
2004-04-29 08:32:42 51°10.047 2°39.138 11.97279 3.929605 34.152012 20.65793
2004-04-29 08:33:42 51°9.973 2°38.824 11.988218 3.931502 34.153822 19.141007
2004-04-29 08:34:42 51°9.899 2°38.51 12.009556 3.933821 34.158995 17.489247
2004-04-29 08:35:43 51°9.824 2°38.19 12.030251 3.935507 34.159483 17.489247
2004-04-29 08:36:43 51°9.745 2°37.878 12.056212 3.938142 34.161238 17.522956
2004-04-29 08:37:43 51°9.67 2°37.566 12.066394 3.940251 34.168686 19.848905
2004-04-29 08:38:42 51°9.588 2°37.26 12.090751 3.942675 34.172716 21.972597
2004-04-29 08:39:42 51°9.508 2°36.948 12.098065 3.944994 34.175726 20.995024
2004-04-29 08:40:43 51°9.424 2°36.63 12.078482 3.944994 34.185072 22.511947
2004-04-29 08:41:42 51°9.345 2°36.321 12.04662 3.944151 34.199221 30.062853
2004-04-29 08:42:42 51°9.263 2°36.007 12.017653 3.942992 34.215375 42.333076
2004-04-29 08:43:42 51°9.18 2°35.693 11.97634 3.940778 34.224955 46.344494
2004-04-29 08:44:43 51°9.093 2°35.377 11.945248 3.938354 34.233236 49.277212
2004-04-29 08:45:42 51°9.027 2°35.134 11.908674 3.935825 34.236174 47.692871
2004-04-29 08:46:43 51°8.99 2°35.029 11.878143 3.932241 34.243372 49.546888
2004-04-29 08:47:42 51°8.994 2°35.039 11.863464 3.93066 34.241055 50.086238
2004-04-29 08:48:43 51°9.001 2°35.056 11.862781 3.9295 34.237035 52.277349
2004-04-29 08:49:42 51°9.002 2°35.069 11.867613 3.929606 34.242411 52.985247
2004-04-29 08:50:43 51°8.991 2°35.079 11.862416 3.929606 34.242411 52.513315
2004-04-29 08:51:42 51°8.971 2°35.078 11.860501 3.92929 34.242963 59.01923
2004-04-29 08:52:42 51°8.947 2°35.058 11.856352 3.929501 34.247914 54.401042
2004-04-29 08:53:42 51°8.931 2°35.019 11.842171 3.928552 34.246671 47.625452
2004-04-29 08:54:43 51°8.93 2°34.968 11.83761 3.927709 34.245727 43.917418
2004-04-29 08:55:42 51°8.941 2°34.918 11.830221 3.927287 34.247433 42.67017
2004-04-29 08:56:42 51°8.952 2°34.866 11.817266 3.926971 34.251618 42.67017
2004-04-29 08:57:42 51°8.959 2°34.813 11.815851 3.926339 34.25418 40.141965
2004-04-29 08:58:42 51°8.965 2°34.756 11.805585 3.926022 34.256189 38.658751
2004-04-29 08:59:43 51°8.97 2°34.694 11.780439 3.924968 34.262646 35.759742
2004-04-29 09:00:50 51°8.971 2°34.626 11.769391 3.922966 34.267147 31.714614
2004-04-29 09:01:49 51°8.967 2°34.57 11.777791 3.922966 34.263508 27.972871
2004-04-29 09:02:50 51°8.96 2°34.513 11.778019 3.924125 34.260252 24.028871
2004-04-29 09:03:50 51°8.952 2°34.457 11.76825 3.923598 34.265303 23.894033
2004-04-29 09:04:50 51°8.943 2°34.403 11.744459 3.922228 34.266508 24.129999
2004-04-29 09:05:50 51°8.932 2°34.349 11.738978 3.920753 34.269602 24.433383
2004-04-29 09:06:50 51°8.917 2°34.299 11.738612 3.921069 34.2705 24.736768
2004-04-29 09:07:50 51°8.899 2°34.249 11.715131 3.920331 34.274964 25.276118
2004-04-29 09:08:49 51°8.88 2°34.201 11.704301 3.919699 34.283378 26.219982
2004-04-29 09:09:50 51°8.86 2°34.152 11.693606 3.918328 34.283868 28.175127
2004-04-29 09:10:50 51°8.84 2°34.104 11.690635 3.918012 34.28881 30.669623
2004-04-29 09:11:50 51°8.822 2°34.054 11.682315 3.917485 34.284395 31.579777
2004-04-29 09:12:50 51°8.806 2°34.001 11.685744 3.91738 34.287746 32.52364
2004-04-29 09:13:50 51°8.79 2°33.947 11.680761 3.916853 34.28406 34.445076
2004-04-29 09:14:50 51°8.772 2°33.894 11.68291 3.917275 34.286717 35.388939
2004-04-29 09:15:50 51°8.753 2°33.845 11.682178 3.917275 34.291098 36.43393
2004-04-29 09:16:50 51°8.73 2°33.803 11.682041 3.917485 34.293887 37.0407
2004-04-29 09:17:48 51°8.71 2°33.782 11.681904 3.917802 34.292593 37.377794
2004-04-29 09:18:50 51°8.69 2°33.768 11.68739 3.917064 34.285388 39.130683
2004-04-29 09:19:49 51°8.675 2°33.743 11.701102 3.917802 34.288212 37.141828
2004-04-29 09:20:50 51°8.68 2°33.697 11.698588 3.918539 34.287385 36.43393
2004-04-29 09:21:50 51°8.718 2°33.669 11.696623 3.918539 34.284466 36.973281
2004-04-29 09:22:50 51°8.766 2°33.711 11.683687 3.918434 34.293656 39.198101
2004-04-29 09:23:50 51°8.793 2°33.792 11.665079 3.91738 34.297971 33.737178
2004-04-29 09:24:50 51°8.813 2°33.869 11.659408 3.916748 34.301294 34.714751
2004-04-29 09:25:50 51°8.832 2°33.945 11.661603 3.916748 34.300563 32.591059
2004-04-29 09:26:50 51°8.851 2°34.018 11.658585 3.916642 34.301726 32.152836
2004-04-29 09:27:50 51°8.869 2°34.096 11.667365 3.916642 34.299533 34.074272
2004-04-29 09:28:50 51°8.889 2°34.176 11.671983 3.91738 34.305279 37.175537
2004-04-29 09:29:50 51°8.907 2°34.259 11.681538 3.917485 34.299001 37.00699
2004-04-29 09:30:50 51°8.925 2°34.342 11.685652 3.917907 34.298735 34.950717
2004-04-29 09:31:50 51°8.942 2°34.425 11.68419 3.918223 34.298171 32.085418
2004-04-29 09:32:50 51°8.959 2°34.507 11.693606 3.918645 34.297175 30.501076
2004-04-29 09:33:50 51°8.978 2°34.586 11.703432 3.919066 34.294719 29.69205
2004-04-29 09:34:50 51°9 2°34.664 11.710881 3.919488 34.290805 30.501076
2004-04-29 09:35:50 51°9.023 2°34.743 11.728791 3.920647 34.288986 31.95058
2004-04-29 09:36:50 51°9.044 2°34.823 11.750122 3.921807 34.285711 30.332529
2004-04-29 09:37:50 51°9.062 2°34.905 11.76309 3.923071 34.281283 27.062717
2004-04-29 09:38:50 51°9.08 2°34.985 11.773819 3.924336 34.281229 26.927879
2004-04-29 09:39:50 51°9.098 2°35.064 11.77916 3.92518 34.281436 27.130136
2004-04-29 09:40:50 51°9.114 2°35.143 11.780119 3.925074 34.280409 24.197418
2004-04-29 09:41:50 51°9.129 2°35.224 11.769345 3.924969 34.279382 24.197418
2004-04-29 09:42:50 51°9.141 2°35.305 11.774002 3.924653 34.281397 25.815469
2004-04-29 09:43:50 51°9.151 2°35.386 11.79979 3.924863 34.270349 31.984289
2004-04-29 09:44:50 51°9.162 2°35.466 11.815486 3.926233 34.26551 34.445076
2004-04-29 09:45:50 51°9.174 2°35.546 11.821554 3.927393 34.265893 36.905862
2004-04-29 09:46:50 51°9.186 2°35.625 11.826617 3.928025 34.266234 38.861007
2004-04-29 09:47:50 51°9.198 2°35.705 11.832365 3.928658 34.267302 36.43393
2004-04-29 09:48:50 51°9.211 2°35.785 11.833049 3.929185 34.270251 34.917007
2004-04-29 09:49:50 51°9.229 2°35.864 11.87869 3.92929 34.26837 36.43393
2004-04-29 09:50:50 51°9.248 2°35.943 11.993451 3.93593 34.248778 35.490067
2004-04-29 09:51:50 51°9.265 2°36.024 12.086253 3.945206 34.241858 35.051845
2004-04-29 09:52:50 51°9.282 2°36.105 12.133808 3.951951 34.237219 34.006853
2004-04-29 09:53:50 51°9.296 2°36.183 12.143251 3.953954 34.23211 34.411366
2004-04-29 09:54:50 51°9.307 2°36.249 12.146611 3.953954 34.227796 34.917007
2004-04-29 09:55:50 51°9.315 2°36.3 12.151649 3.953743 34.222884 35.490067
2004-04-29 09:56:50 51°9.323 2°36.344 12.151604 3.953848 34.220308 35.456358
2004-04-29 09:57:50 51°9.331 2°36.382 12.15637 3.954481 34.222823 35.051845
2004-04-29 09:58:50 51°9.339 2°36.417 12.167399 3.954692 34.223421 37.074409
2004-04-29 09:59:50 51°9.373 2°36.482 12.166219 3.955429 34.221206 37.883435
2004-04-29 10:00:50 51°9.503 2°36.453 12.153737 3.954902 34.222583 38.523913
2004-04-29 10:01:50 51°9.701 2°36.301 12.034707 3.952373 34.220431 34.20911
2004-04-29 10:02:50 51°9.907 2°36.142 12.009965 3.94373 34.23406 38.861007
2004-04-29 10:03:50 51°10.116 2°35.987 11.998046 3.942359 34.233056 34.478785
2004-04-29 10:04:50 51°10.327 2°35.845 11.900337 3.940146 34.239771 25.950306
2004-04-29 10:05:50 51°10.555 2°35.828 11.853206 3.931714 34.275247 25.343537
2004-04-29 10:06:50 51°10.752 2°36.02 11.809783 3.931293 34.277683 30.096563
2004-04-29 10:07:50 51°10.917 2°36.274 11.79153 3.928869 34.299902 34.950717
2004-04-29 10:08:50 51°11.07 2°36.55 11.832456 3.928658 34.28766 45.299503
2004-04-29 10:09:48 51°11.217 2°36.818 11.884114 3.931925 34.270036 36.737315
2004-04-29 10:10:50 51°11.375 2°37.106 11.90102 3.934982 34.267824 28.984153
2004-04-29 10:11:50 51°11.528 2°37.386 11.874952 3.935825 34.273116 29.287537
2004-04-29 10:12:50 51°11.683 2°37.665 11.817494 3.93319 34.284515 28.040289
2004-04-29 10:13:50 51°11.837 2°37.943 11.783086 3.928658 34.292026 31.310101
2004-04-29 10:14:50 51°11.992 2°38.22 11.783177 3.925917 34.283528 31.916871
2004-04-29 10:15:50 51°12.149 2°38.497 11.859316 3.926233 34.257514 25.74805
2004-04-29 10:16:50 51°12.306 2°38.775 11.887896 3.926021 34.191643 15.230717
2004-04-29 10:17:50 51°12.462 2°39.052 11.931313 3.924756 34.157664 15.129589
2004-04-29 10:18:50 51°12.616 2°39.329 11.983758 3.921066 34.078604 20.017452
2004-04-29 10:19:50 51°12.763 2°39.616 12.008237 3.918641 34.017026 32.253965
2004-04-29 10:20:50 51°12.913 2°39.9 12.038799 3.915794 33.967978 30.366238
2004-04-29 10:21:50 51°13.073 2°40.17 12.044028 3.911789 33.913503 26.691913
2004-04-29 10:22:50 51°13.226 2°40.452 12.052075 3.911683 33.904627 30.399947
2004-04-29 10:23:50 51°13.374 2°40.738 12.061985 3.909785 33.877726 27.130136
2004-04-29 10:24:50 51°13.521 2°41.03 12.124908 3.89176 33.688018 24.028871
2004-04-29 10:25:50 51°13.667 2°41.324 12.153556 3.852863 33.253503 21.669212
2004-04-29 10:26:50 51°13.813 2°41.614 12.078346 3.828726 33.032578 32.119127
2004-04-29 10:27:50 51°13.918 2°41.824 12.039209 3.804484 32.86113 43.748871
2004-04-29 10:28:50 51°13.991 2°41.942 12.071438 3.801533 32.838271 39.636324
2004-04-29 10:29:50 51°14.037 2°41.977 12.087707 3.802692 32.83146 33.0967
2004-04-29 10:30:50 51°14.083 2°42.012 12.090978 3.806908 32.854033 29.220118
2004-04-29 10:31:50 51°14.124 2°42.069 12.06953 3.807962 32.87522 27.197554
2004-04-29 10:32:50 51°14.16 2°42.131 12.065757 3.80986 32.911457 25.006443
2004-04-29 10:33:50 51°14.202 2°42.199 12.078482 3.807962 32.883518 23.422101
2004-04-29 10:34:50 51°14.24 2°42.271 12.086025 3.809438 32.888717 21.938888
2004-04-29 10:35:50 51°14.274 2°42.338 12.094067 3.811651 32.903081 20.860187
2004-04-29 10:36:50 51°14.306 2°42.405 12.105152 3.812494 32.902887 19.781486
2004-04-29 10:37:50 51°14.337 2°42.47 12.1131 3.814813 32.919641 18.702785
2004-04-29 10:38:50 51°14.368 2°42.537 12.120639 3.817132 32.932933 18.365691
2004-04-29 10:39:50 51°14.398 2°42.604 12.113327 3.819345 32.953512 18.028597
2004-04-29 10:40:50 51°14.429 2°42.672 12.114054 3.821348 32.974144 17.556665
2004-04-29 10:41:48 51°14.458 2°42.74 12.11905 3.823034 32.991739 18.331982
2004-04-29 10:42:50 51°14.487 2°42.812 12.133081 3.824299 32.995579 18.534238
2004-04-29 10:43:50 51°14.514 2°42.885 12.140028 3.825247 32.995687 18.43311
2004-04-29 10:44:50 51°14.538 2°42.96 12.148971 3.825985 32.994463 18.97246
2004-04-29 10:45:50 51°14.561 2°43.036 12.156279 3.826196 32.988871 19.410683
2004-04-29 10:46:48 51°14.584 2°43.107 12.16345 3.826617 32.987382 19.916324
2004-04-29 10:47:50 51°14.61 2°43.179 12.16631 3.826723 32.982167 19.444392
2004-04-29 10:48:50 51°14.637 2°43.25 12.167762 3.827144 32.983447 20.11858
2004-04-29 10:49:50 51°14.663 2°43.322 12.144976 3.827566 32.9958 21.163571
2004-04-29 10:50:50 51°14.689 2°43.393 12.084889 3.827145 33.029869 22.815332
2004-04-29 10:51:50 51°14.713 2°43.466 12.089433 3.824721 33.031547 21.399537
2004-04-29 10:52:50 51°14.736 2°43.537 12.087616 3.822297 33.006839 19.343264
2004-04-29 10:53:50 51°14.76 2°43.606 12.095021 3.819872 32.983522 18.736494
2004-04-29 10:54:50 51°14.786 2°43.677 12.105424 3.818608 32.960962 20.084871
2004-04-29 10:55:50 51°14.81 2°43.748 12.108695 3.816605 32.936864 19.950033
2004-04-29 10:56:49 51°14.834 2°43.818 12.109694 3.81397 32.909463 18.770204
2004-04-29 10:57:50 51°14.858 2°43.89 12.112237 3.81144 32.885845 18.43311
2004-04-29 10:58:50 51°14.883 2°43.959 12.107741 3.811546 32.884094 18.669076
2004-04-29 10:59:50 51°14.908 2°44.029 12.103925 3.810386 32.877098 18.331982
2004-04-29 11:00:50 51°14.932 2°44.099 12.105878 3.810175 32.874382 19.57923
2004-04-29 11:01:50 51°14.955 2°44.169 12.099155 3.809227 32.868029 19.747777
2004-04-29 11:02:48 51°14.978 2°44.237 12.095657 3.808278 32.863057 20.624221
2004-04-29 11:03:50 51°14.997 2°44.307 12.08857 3.807014 32.857118 21.871469
2004-04-29 11:04:50 51°15.001 2°44.355 12.058803 3.803852 32.842607 23.691777
2004-04-29 11:05:50 51°15.001 2°44.366 11.974429 3.801007 32.846337 26.085144
2004-04-29 11:06:50 51°14.986 2°44.4 11.859452 3.796054 32.904698 31.310101
2004-04-29 11:07:50 51°14.933 2°44.426 11.999411 3.791417 32.839812 31.040426
2004-04-29 11:08:50 51°14.891 2°44.41 12.040073 3.793207 32.789243 27.231264
2004-04-29 11:09:50 51°14.859 2°44.372 12.095021 3.796263 32.774477 26.793042
2004-04-29 11:10:50 51°14.828 2°44.317 12.11855 3.797738 32.759033 25.276118
2004-04-29 11:11:50 51°14.805 2°44.25 12.122229 3.797 32.735437 24.06258
2004-04-29 11:12:50 51°14.785 2°44.183 12.114281 3.797949 32.745231 24.63564
2004-04-29 11:13:50 51°14.76 2°44.118 12.09334 3.800373 32.780211 24.163708
2004-04-29 11:14:50 51°14.732 2°44.055 12.076119 3.805433 32.849518 23.759195
2004-04-29 11:15:50 51°14.706 2°43.989 12.074529 3.806171 32.86283 24.534512
2004-04-29 11:16:50 51°14.681 2°43.922 12.043073 3.806065 32.878413 25.613212
2004-04-29 11:17:50 51°14.656 2°43.854 12.028568 3.806487 32.900472 25.781759
2004-04-29 11:18:50 51°14.631 2°43.787 12.034343 3.80712 32.91557 24.736768
2004-04-29 11:19:50 51°14.605 2°43.722 12.055848 3.807857 32.905347 24.163708
2004-04-29 11:20:50 51°14.579 2°43.656 12.060621 3.809754 32.915291 23.759195
2004-04-29 11:21:50 51°14.552 2°43.589 12.056485 3.812389 32.943421 24.332255
2004-04-29 11:22:50 51°14.527 2°43.522 12.078528 3.814076 32.94717 24.534512
2004-04-29 11:23:50 51°14.502 2°43.454 12.080436 3.816711 32.962814 23.927742
2004-04-29 11:24:50 51°14.476 2°43.387 12.086025 3.818292 32.978023 24.703059
2004-04-29 11:25:50 51°14.449 2°43.32 12.104016 3.819978 32.981068 24.60193
2004-04-29 11:26:50 51°14.423 2°43.253 12.120866 3.821769 32.980967 25.309828
2004-04-29 11:27:50 51°14.397 2°43.186 12.124817 3.822823 32.985555 25.714341
2004-04-29 11:28:50 51°14.37 2°43.118 12.122865 3.823245 32.984757 25.276118
2004-04-29 11:29:48 51°14.343 2°43.052 12.122819 3.82314 32.98513 25.141281
2004-04-29 11:30:50 51°14.316 2°42.979 12.117687 3.823245 32.987528 25.006443
2004-04-29 11:31:50 51°14.29 2°42.909 12.110193 3.824088 33.002565 24.231127
2004-04-29 11:32:50 51°14.263 2°42.837 12.107241 3.824194 33.008433 24.06258
2004-04-29 11:33:50 51°14.236 2°42.766 12.111238 3.824615 33.013874 23.826614
2004-04-29 11:34:50 51°14.208 2°42.698 12.118323 3.82451 33.005924 23.48952
2004-04-29 11:35:50 51°14.18 2°42.627 12.119368 3.824404 33.000751 22.747913
2004-04-29 11:36:50 51°14.154 2°42.555 12.113691 3.825037 33.00891 22.006306
2004-04-29 11:37:50 51°14.127 2°42.483 12.111602 3.824404 33.005605 22.141144
2004-04-29 11:38:50 51°14.1 2°42.41 12.103653 3.821032 32.978033 23.017589
2004-04-29 11:39:50 51°14.073 2°42.338 12.102199 3.822402 32.998833 24.028871
2004-04-29 11:40:50 51°14.054 2°42.271 12.094431 3.817975 32.958346 26.017725
2004-04-29 11:41:50 51°14.044 2°42.219 12.093477 3.810703 32.890504 28.57964
2004-04-29 11:42:50 51°14.038 2°42.175 12.089751 3.80069 32.795652 28.54593
2004-04-29 11:43:50 51°14.037 2°42.057 12.093113 3.809332 32.880789 29.287537
2004-04-29 11:44:50 51°13.955 2°41.955 12.127587 3.800057 32.787508 29.354956
2004-04-29 11:45:50 51°13.89 2°42.093 12.147337 3.811229 32.856205 30.332529
2004-04-29 11:46:50 51°13.986 2°42.184 12.143751 3.811124 32.853125 35.152973
2004-04-29 11:47:50 51°14.111 2°41.975 12.123682 3.803851 32.778499 36.197965
2004-04-29 11:48:50 51°14.215 2°41.648 12.108831 3.82061 32.956667 31.444939
2004-04-29 11:49:50 51°14.319 2°41.318 12.095794 3.825775 33.023634 26.085144
2004-04-29 11:50:50 51°14.428 2°40.994 12.115371 3.826513 33.033505 27.804324
2004-04-29 11:51:50 51°14.552 2°40.682 12.077846 3.839056 33.186941 31.141554
2004-04-29 11:52:50 51°14.676 2°40.373 12.102017 3.837264 33.155731 25.141281
2004-04-29 11:53:50 51°14.799 2°40.061 12.109376 3.834839 33.104549 22.174853
2004-04-29 11:54:50 51°14.94 2°39.77 12.160591 3.853074 33.272995 19.174717
2004-04-29 11:55:50 51°15.074 2°39.472 12.147927 3.859082 33.293749 17.489247
2004-04-29 11:56:50 51°15.165 2°39.13 12.012149 3.865723 33.431265 24.770477
2004-04-29 11:57:50 51°15.265 2°38.795 12.008009 3.872682 33.578866 32.321383
2004-04-29 11:58:50 51°15.394 2°38.486 12.034571 3.884171 33.662955 28.175127
2004-04-29 11:59:50 51°15.507 2°38.16 12.020109 3.885752 33.648449 19.376973
2004-04-29 12:00:50 51°15.622 2°37.834 11.836378 3.879112 33.672984 25.984016
2004-04-29 12:01:50 51°15.738 2°37.505 11.882564 3.881222 33.813378 29.388665
2004-04-29 12:02:50 51°15.863 2°37.184 11.749071 3.894714 33.919292 23.927742
2004-04-29 12:03:50 51°16.04 2°36.969 11.856854 3.895138 34.06054 30.130272
2004-04-29 12:04:50 51°16.261 2°36.903 11.744641 3.887862 33.845594 20.860187
2004-04-29 12:05:50 51°16.432 2°36.85 11.912365 3.882803 33.860329 22.815332
2004-04-29 12:06:50 51°16.535 2°36.836 11.991585 3.879534 33.673509 17.792631
2004-04-29 12:07:50 51°16.593 2°36.811 12.00296 3.871627 33.563015 16.612802
2004-04-29 12:08:50 51°16.593 2°36.8 11.987035 3.867306 33.512072 16.140871
2004-04-29 12:09:59 51°16.606 2°36.79 11.907444 3.874791 33.663158 17.455537
2004-04-29 12:10:59 51°16.653 2°36.804 11.860866 3.878059 33.732604 19.54552
2004-04-29 12:11:59 51°16.698 2°36.831 11.935867 3.87205 33.655829 19.00617
2004-04-29 12:12:59 51°16.737 2°36.865 11.966145 3.867201 33.559878 16.74764
2004-04-29 12:13:59 51°16.776 2°36.903 11.973336 3.864987 33.520772 16.477965
2004-04-29 12:15:06 51°16.817 2°36.94 11.962367 3.861192 33.484801 15.500392
2004-04-29 12:16:07 51°16.857 2°36.978 11.950166 3.853498 33.426669 15.534101
2004-04-29 12:17:06 51°16.897 2°37.016 11.9386 3.850757 33.405821 16.376836
2004-04-29 12:18:07 51°16.94 2°37.055 11.954536 3.840006 33.303316 16.140871
2004-04-29 12:19:07 51°16.981 2°37.093 11.958269 3.837582 33.267947 16.343127
2004-04-29 12:20:07 51°17.021 2°37.128 11.950803 3.83579 33.251343 16.74764
2004-04-29 12:21:07 51°17.061 2°37.169 11.93737 3.843274 33.334894 15.500392
2004-04-29 12:22:15 51°17.105 2°37.214 11.938964 3.841482 33.325318 16.039742
2004-04-29 12:23:15 51°17.144 2°37.254 11.942152 3.824301 33.154405 17.084734
2004-04-29 12:24:15 51°17.18 2°37.289 11.948936 3.824301 33.148805 16.140871
2004-04-29 12:25:15 51°17.22 2°37.331 11.951714 3.83832 33.278587 17.826341
2004-04-29 12:26:15 51°17.26 2°37.369 11.949164 3.840849 33.303025 17.556665
2004-04-29 12:27:15 51°17.298 2°37.406 11.9386 3.838741 33.288985 18.905042
2004-04-29 12:28:22 51°17.34 2°37.451 11.933681 3.83305 33.241719 18.298272
2004-04-29 12:29:22 51°17.378 2°37.49 11.932088 3.832417 33.241928 19.376973
2004-04-29 12:30:22 51°17.417 2°37.529 11.937097 3.838109 33.296938 19.646648
2004-04-29 12:31:22 51°17.457 2°37.568 11.934774 3.83832 33.294755 20.590512
2004-04-29 12:32:22 51°17.496 2°37.606 11.941787 3.838425 33.288039 18.871332
2004-04-29 12:33:22 51°17.534 2°37.646 11.944246 3.839268 33.299 18.062306
2004-04-29 12:34:22 51°17.572 2°37.686 11.959999 3.839795 33.290733 16.545383
2004-04-29 12:35:22 51°17.61 2°37.725 11.964415 3.840322 33.287392 15.702648
2004-04-29 12:36:22 51°17.648 2°37.765 11.976386 3.840322 33.283879 15.904905
2004-04-29 12:37:22 51°17.685 2°37.806 11.986534 3.840849 33.277733 14.859913
2004-04-29 12:38:22 51°17.723 2°37.847 11.987035 3.84127 33.271977 14.556529
2004-04-29 12:39:22 51°17.761 2°37.887 11.982029 3.840954 33.272434 14.354272
2004-04-29 12:40:22 51°17.798 2°37.927 11.974747 3.840533 33.27468 14.286853
2004-04-29 12:41:26 51°17.837 2°37.968 11.976386 3.840217 33.273733 14.084597
2004-04-29 12:42:27 51°17.875 2°38.007 11.988582 3.840111 33.269908 13.208153
2004-04-29 12:43:27 51°17.912 2°38.046 11.987535 3.840954 33.268925 13.511537
2004-04-29 12:44:32 51°17.953 2°38.091 11.983713 3.840427 33.26875 14.522819
2004-04-29 12:45:32 51°17.988 2°38.129 11.975976 3.840111 33.27061 12.23058
2004-04-29 12:46:32 51°18.019 2°38.171 11.961365 3.839795 33.278088 11.69123
2004-04-29 12:47:37 51°18.039 2°38.212 11.92521 3.839479 33.296114 12.129452
2004-04-29 12:48:36 51°18.052 2°38.241 11.895598 3.838531 33.319317 12.702512
2004-04-29 12:49:36 51°18.074 2°38.318 11.903025 3.837161 33.315221 13.275571
2004-04-29 12:50:36 51°18.081 2°38.578 11.776011 3.836318 33.339499 12.297999
2004-04-29 12:51:36 51°18.072 2°38.927 11.635532 3.824093 33.339744 12.196871
2004-04-29 12:52:36 51°18.055 2°39.279 11.41489 3.798694 33.281387 18.938751
2004-04-29 12:53:36 51°18.04 2°39.63 11.337502 3.788156 33.280381 21.938888
2004-04-29 12:54:37 51°18.03 2°39.986 11.33764 3.783835 33.288128 25.242409
2004-04-29 12:55:37 51°18.018 2°40.335 11.336629 3.778987 33.245634 23.624358
2004-04-29 12:56:37 51°18.013 2°40.682 11.338375 3.772242 33.166006 19.612939
2004-04-29 12:57:40 51°18.009 2°41.046 11.319393 3.770766 33.169386 18.500529
2004-04-29 12:58:46 51°18.004 2°41.432 11.388813 3.769712 33.144805 18.062306
2004-04-29 12:59:46 51°18.001 2°41.784 11.363691 3.776246 33.163165 16.343127
2004-04-29 13:00:46 51°18 2°42.135 11.254548 3.773928 33.199645 17.758922
2004-04-29 13:01:43 51°18.001 2°42.47 11.253627 3.767922 33.211527 18.534238
2004-04-29 13:02:47 51°18.001 2°42.846 11.182545 3.766974 33.240203 19.714067
2004-04-29 13:03:47 51°18.005 2°43.198 11.158496 3.762653 33.241526 16.949896
2004-04-29 13:04:52 51°18.003 2°43.574 11.42306 3.752007 33.05253 23.590648
2004-04-29 13:05:52 51°18.003 2°43.917 11.378389 3.749055 32.90658 22.781623
2004-04-29 13:06:52 51°18.003 2°44.264 11.332768 3.744734 32.882012 20.826477
2004-04-29 13:07:56 51°18.003 2°44.63 11.334561 3.741151 32.875239 16.646512
2004-04-29 13:08:57 51°18.003 2°44.876 11.425721 3.742099 32.858377 14.556529
2004-04-29 13:09:57 51°18.01 2°45.002 11.466095 3.740307 32.786639 13.713794
2004-04-29 13:10:58 51°18.003 2°45.034 11.485218 3.741254 32.730634 13.646375
2004-04-29 13:11:56 51°17.997 2°45.026 11.381971 3.741571 32.770171 15.904905
2004-04-29 13:12:56 51°17.987 2°45.023 11.298383 3.741256 32.884756 29.793178
2004-04-29 13:13:58 51°17.922 2°45.067 11.234299 3.740308 32.917251 36.197965
2004-04-29 13:14:57 51°17.864 2°45.075 11.31144 3.736725 32.889944 30.197691
2004-04-29 13:15:56 51°17.811 2°45.061 11.353492 3.737146 32.843838 21.702922
2004-04-29 13:16:56 51°17.759 2°45.028 11.422968 3.736829 32.799128 17.725212
2004-04-29 13:17:58 51°17.711 2°44.98 11.483476 3.738093 32.747492 16.612802
2004-04-29 13:18:56 51°17.669 2°44.929 11.473754 3.731348 32.644664 16.376836
2004-04-29 13:19:57 51°17.624 2°44.877 11.454215 3.737145 32.73614 15.871195
2004-04-29 13:21:02 51°17.575 2°44.823 11.562937 3.738409 32.700828 15.02846
2004-04-29 13:22:02 51°17.529 2°44.775 11.561059 3.743888 32.696841 15.163298
2004-04-29 13:23:02 51°17.484 2°44.727 11.511028 3.738303 32.671848 15.02846
2004-04-29 13:24:02 51°17.438 2°44.679 11.51474 3.734509 32.670556 15.331845
2004-04-29 13:25:02 51°17.393 2°44.63 11.524593 3.733244 32.637294 14.084597
2004-04-29 13:26:02 51°17.348 2°44.581 11.515702 3.742097 32.724143 14.286853
2004-04-29 13:27:02 51°17.303 2°44.532 11.522622 3.734088 32.654573 14.522819
2004-04-29 13:28:02 51°17.257 2°44.482 11.565181 3.734825 32.631048 15.02846
2004-04-29 13:29:02 51°17.212 2°44.433 11.567059 3.732612 32.596297 16.680221
2004-04-29 13:30:02 51°17.166 2°44.385 11.563166 3.730293 32.575852 17.489247
2004-04-29 13:31:02 51°17.12 2°44.336 11.55483 3.743994 32.703452 18.3994
2004-04-29 13:32:02 51°17.075 2°44.286 11.537285 3.744732 32.725299 19.714067
2004-04-29 13:33:02 51°17.028 2°44.238 11.515932 3.744416 32.743211 18.837623
2004-04-29 13:34:02 51°16.982 2°44.192 11.546722 3.743889 32.747184 18.635366
2004-04-29 13:35:02 51°16.936 2°44.143 11.527892 3.747261 32.748505 19.848905
2004-04-29 13:36:02 51°16.89 2°44.095 11.499889 3.744627 32.765579 21.197281
2004-04-29 13:37:02 51°16.845 2°44.047 11.527434 3.744205 32.751663 20.860187
2004-04-29 13:38:02 51°16.8 2°43.997 11.48884 3.743784 32.746858 21.028734
2004-04-29 13:39:02 51°16.754 2°43.949 11.447425 3.740201 32.750501 22.3434
2004-04-29 13:40:02 51°16.707 2°43.902 11.429117 3.735669 32.733679 25.276118
2004-04-29 13:41:02 51°16.661 2°43.855 11.403689 3.737251 32.76736 27.062717
2004-04-29 13:42:02 51°16.614 2°43.808 11.417047 3.733878 32.736557 27.770614
2004-04-29 13:43:02 51°16.568 2°43.758 11.366033 3.737145 32.786727 29.253828
2004-04-29 13:44:02 51°16.523 2°43.708 11.348622 3.733352 32.786984 31.647195
2004-04-29 13:45:02 51°16.48 2°43.657 11.354227 3.729874 32.752992 33.265247
2004-04-29 13:46:02 51°16.446 2°43.608 11.330976 3.735144 32.805907 32.894443
2004-04-29 13:47:02 51°16.417 2°43.563 11.339018 3.733457 32.802114 34.20911
2004-04-29 13:48:02 51°16.392 2°43.522 11.352481 3.734195 32.798749 33.534922
2004-04-29 13:49:02 51°16.36 2°43.469 11.362175 3.734511 32.791972 33.265247
2004-04-29 13:50:02 51°16.285 2°43.427 11.463756 3.735986 32.779628 31.310101
2004-04-29 13:51:02 51°16.206 2°43.502 11.52221 3.743257 32.759244 25.410956
2004-04-29 13:52:02 51°16.085 2°43.754 11.367044 3.74547 32.764678 25.512084
2004-04-29 13:53:02 51°15.944 2°44.037 11.395241 3.732298 32.801358 44.085965
2004-04-29 13:54:02 51°15.807 2°44.327 11.490124 3.734194 32.711577 31.141554
2004-04-29 13:55:07 51°15.653 2°44.633 11.434899 3.735353 32.746741 40.37793
2004-04-29 13:56:07 51°15.515 2°44.921 11.580841 3.737355 32.715764 39.636324
2004-04-29 13:57:07 51°15.375 2°45.205 11.78943 3.7461 32.641018 31.748324
2004-04-29 13:58:12 51°15.226 2°45.512 11.847141 3.738406 32.481371 32.051708
2004-04-29 13:59:12 51°15.089 2°45.795 11.836378 3.737456 32.413724 33.400084
2004-04-29 14:00:12 51°14.954 2°46.074 11.627389 3.726286 32.401353 45.366922
2004-04-29 14:01:10 51°14.826 2°46.34 11.575667 3.711112 32.350152 57.771982
2004-04-29 14:02:15 51°14.676 2°46.641 11.564036 3.703946 32.311669 55.007811
2004-04-29 14:03:18 51°14.531 2°46.939 11.725137 3.702786 32.250855 45.872563
2004-04-29 14:04:19 51°14.393 2°47.222 11.678658 3.696252 32.112298 46.175947
2004-04-29 14:05:19 51°14.259 2°47.501 11.672577 3.686873 32.086467 68.120768
2004-04-29 14:06:20 51°14.132 2°47.749 11.611419 3.688665 32.105861 68.120768
2004-04-29 14:07:25 51°14.04 2°47.89 11.68003 3.68603 32.078307 68.120768
2004-04-29 14:08:24 51°13.976 2°47.935 11.751126 3.683079 31.993196 68.221896
2004-04-29 14:09:25 51°13.953 2°47.935 11.817494 3.684659 31.944646 63.199195
2004-04-29 14:10:26 51°13.941 2°47.935 11.823789 3.68666 31.92739 61.008084
2004-04-29 14:11:23 51°13.948 2°47.977 11.90503 3.687925 31.919964 65.828529
2004-04-29 14:12:25 51°13.96 2°48.039 11.992905 3.694773 31.895463 54.401042
2004-04-29 14:13:30 51°13.967 2°48.1 12.028841 3.697302 31.883426 47.15352
2004-04-29 14:14:36 51°13.975 2°48.16 12.093431 3.700674 31.86274 38.658751
2004-04-29 14:15:36 51°13.988 2°48.215 12.138121 3.703518 31.839106 33.838306
2004-04-29 14:16:36 51°14.004 2°48.272 12.13458 3.704045 31.831449 31.680905
2004-04-29 14:17:36 51°14.018 2°48.331 12.161227 3.703096 31.815708 33.737178
2004-04-29 14:18:36 51°14.031 2°48.39 12.238791 3.705836 31.8032 31.849452
2004-04-29 14:19:39 51°14.046 2°48.452 12.264897 3.70847 31.783079 29.321247
2004-04-29 14:20:39 51°14.06 2°48.511 12.290404 3.708996 31.766178 33.130409
2004-04-29 14:21:40 51°14.074 2°48.572 12.336863 3.708258 31.731302 34.20911
2004-04-29 14:22:45 51°14.09 2°48.635 12.351301 3.708152 31.680701 33.130409
2004-04-29 14:23:45 51°14.105 2°48.693 12.333151 3.704253 31.657508 32.051708
2004-04-29 14:24:46 51°14.119 2°48.754 12.324685 3.701408 31.650923 31.41123
2004-04-29 14:25:43 51°14.132 2°48.81 12.347771 3.701408 31.64432 32.48993
2004-04-29 14:26:50 51°14.148 2°48.875 12.353338 3.701619 31.633787 31.040426
2004-04-29 14:27:50 51°14.162 2°48.933 12.388627 3.70341 31.629053 31.512358
2004-04-29 14:28:48 51°14.175 2°48.988 12.399617 3.709206 31.649168 34.950717
2004-04-29 14:29:50 51°14.189 2°49.047 12.399119 3.71047 31.684245 42.737589
2004-04-29 14:30:50 51°14.203 2°49.104 12.427333 3.713842 31.68856 41.760016
2004-04-29 14:31:50 51°14.217 2°49.161 12.421501 3.712683 31.684151 40.344221
2004-04-29 14:32:50 51°14.231 2°49.217 12.420416 3.712789 31.678559 37.849725
2004-04-29 14:33:54 51°14.245 2°49.278 12.375282 3.712473 31.68281 36.535059
2004-04-29 14:34:55 51°14.259 2°49.337 12.412459 3.710576 31.686566 37.58005
2004-04-29 14:35:55 51°14.273 2°49.394 12.417568 3.713737 31.680969 37.310375
2004-04-29 14:36:54 51°14.287 2°49.449 12.405134 3.711102 31.668488 36.400221
2004-04-29 14:37:55 51°14.302 2°49.507 12.390572 3.709206 31.661027 38.389076
2004-04-29 14:38:54 51°14.316 2°49.562 12.372885 3.707309 31.653562 36.164255
2004-04-29 14:39:54 51°14.331 2°49.618 12.320792 3.70341 31.640919 35.995708
2004-04-29 14:40:55 51°14.345 2°49.677 12.272781 3.696666 31.624305 34.78217
2004-04-29 14:41:55 51°14.357 2°49.736 12.328534 3.692662 31.612612 33.568631
2004-04-29 14:42:55 51°14.371 2°49.793 12.364153 3.702251 31.627268 35.995708
2004-04-29 14:43:59 51°14.381 2°49.844 12.324052 3.70067 31.626751 36.669896
2004-04-29 14:45:00 51°14.384 2°49.872 12.264942 3.696666 31.622324 36.535059
2004-04-29 14:46:00 51°14.386 2°49.888 12.285059 3.692978 31.608356 36.029418
2004-04-29 14:47:00 51°14.381 2°49.931 12.152467 3.690344 31.616311 37.0407
2004-04-29 14:48:00 51°14.326 2°49.955 12.115871 3.676856 31.581 37.681178
2004-04-29 14:49:00 51°14.271 2°49.892 12.20324 3.672009 31.543317 34.815879
2004-04-29 14:49:58 51°14.239 2°49.819 12.295115 3.682545 31.522911 36.400221
2004-04-29 14:50:58 51°14.212 2°49.734 12.288955 3.686866 31.538988 40.310512
2004-04-29 14:52:00 51°14.191 2°49.636 12.300777 3.68676 31.530743 42.299366
2004-04-29 14:53:00 51°14.174 2°49.54 12.274231 3.685812 31.531598 42.906136
2004-04-29 14:54:00 51°14.153 2°49.447 12.21086 3.683915 31.541224 44.557896
2004-04-29 14:55:00 51°14.128 2°49.358 12.184823 3.667582 31.437703 48.063674
2004-04-29 14:55:58 51°14.101 2°49.272 12.174614 3.67538 31.519949 41.726306
2004-04-29 14:57:00 51°14.072 2°49.18 12.172254 3.662313 31.403943 39.231811
2004-04-29 14:58:00 51°14.046 2°49.089 12.146702 3.665053 31.435332 36.43393
2004-04-29 14:58:59 51°14.02 2°49 12.129313 3.66695 31.473211 37.411503
2004-04-29 15:00:00 51°13.994 2°48.907 12.097565 3.66674 31.493001 38.085691
2004-04-29 15:00:59 51°13.968 2°48.818 12.08807 3.652093 31.369646 42.973554
2004-04-29 15:02:00 51°13.94 2°48.726 12.172935 3.664948 31.467969 44.625315
2004-04-29 15:03:00 51°13.913 2°48.635 12.214941 3.683389 31.583754 41.389212
2004-04-29 15:04:00 51°13.887 2°48.543 12.210724 3.684021 31.575897 41.692597
2004-04-29 15:05:00 51°13.86 2°48.451 12.167943 3.687815 31.631258 43.512905
2004-04-29 15:06:00 51°13.833 2°48.358 12.143161 3.686551 31.647704 44.524187
2004-04-29 15:07:00 51°13.807 2°48.266 12.084162 3.668004 31.482606 48.8727
2004-04-29 15:08:00 51°13.781 2°48.175 11.986944 3.670324 31.586903 59.423742
2004-04-29 15:09:00 51°13.755 2°48.084 11.879009 3.670852 31.678605 68.255606
2004-04-29 15:10:00 51°13.73 2°47.993 11.792534 3.665373 31.707017 68.154477
2004-04-29 15:11:00 51°13.703 2°47.904 11.762588 3.660527 31.712091 68.087059
2004-04-29 15:12:00 51°13.676 2°47.814 11.781032 3.670538 31.811909 68.154477
2004-04-29 15:13:00 51°13.65 2°47.724 11.825888 3.663688 31.733794 68.053349
2004-04-29 15:14:00 51°13.623 2°47.634 11.860683 3.672118 31.771892 68.120768
2004-04-29 15:15:00 51°13.598 2°47.544 11.904756 3.665794 31.672861 68.087059
2004-04-29 15:16:00 51°13.581 2°47.452 12.087434 3.669798 31.642451 68.120768
2004-04-29 15:16:59 51°13.582 2°47.361 12.141118 3.687922 31.700669 68.221896
2004-04-29 15:17:59 51°13.602 2°47.283 12.15292 3.679912 31.586323 66.502717
2004-04-29 15:18:59 51°13.635 2°47.239 12.084526 3.689818 31.695507 68.221896
2004-04-29 15:20:00 51°13.668 2°47.24 11.992177 3.687396 31.769696 68.120768
2004-04-29 15:20:59 51°13.687 2°47.277 11.964278 3.675067 31.677607 68.188187
2004-04-29 15:22:00 51°13.699 2°47.324 12.15283 3.678965 31.678265 68.188187
2004-04-29 15:22:59 51°13.708 2°47.355 12.272509 3.692136 31.653244 51.839127
2004-04-29 15:24:00 51°13.711 2°47.37 12.329213 3.693189 31.592542 44.254512
2004-04-29 15:25:00 51°13.724 2°47.415 12.369673 3.694979 31.570697 41.894853
2004-04-29 15:26:00 51°13.739 2°47.484 12.368315 3.703515 31.635327 42.231947
2004-04-29 15:27:00 51°13.748 2°47.526 12.357275 3.690448 31.513849 40.849862
2004-04-29 15:28:00 51°13.755 2°47.551 12.360035 3.693399 31.546471 38.69246
2004-04-29 15:29:00 51°13.789 2°47.704 12.328307 3.698562 31.579725 36.164255
2004-04-29 15:30:00 51°13.851 2°48.003 12.148109 3.690134 31.643429 53.288631
2004-04-29 15:31:00 51°13.905 2°48.321 12.130357 3.678542 31.579209 52.277349
2004-04-29 15:31:59 51°13.961 2°48.634 12.103198 3.677383 31.548295 40.007127
2004-04-29 15:33:00 51°14.012 2°48.96 12.100927 3.680967 31.695435 58.479879
2004-04-29 15:34:00 51°14.06 2°49.281 12.180195 3.688237 31.631965 42.231947
2004-04-29 15:35:00 51°14.104 2°49.604 12.308385 3.691819 31.610532 35.051845
2004-04-29 15:36:00 51°14.152 2°49.927 12.033707 3.684969 31.565776 36.804734
2004-04-29 15:37:00 51°14.197 2°50.25 12.013877 3.668321 31.559779 55.715708
2004-04-29 15:38:00 51°14.235 2°50.576 12.103925 3.665687 31.503442 53.052665
2004-04-29 15:39:00 51°14.28 2°50.9 11.994998 3.663473 31.470399 61.176631
2004-04-29 15:40:00 51°14.324 2°51.224 11.984805 3.651461 31.436916 68.188187
2004-04-29 15:41:00 51°14.369 2°51.549 12.068484 3.649143 31.400183 68.154477
2004-04-29 15:42:00 51°14.415 2°51.873 12.095521 3.646929 31.301945 57.367469
2004-04-29 15:43:00 51°14.458 2°52.2 12.05853 3.642082 31.270147 55.715708
2004-04-29 15:44:00 51°14.498 2°52.53 12.195348 3.642503 31.265634 68.390443
2004-04-29 15:45:00 51°14.533 2°52.862 12.191446 3.652723 31.2595 54.637007
2004-04-29 15:46:00 51°14.555 2°53.197 12.19122 3.640922 31.232853 68.154477
2004-04-29 15:47:00 51°14.575 2°53.532 12.332382 3.654724 31.198303 68.154477
2004-04-29 15:48:00 51°14.587 2°53.876 12.031387 3.640817 31.210241 68.087059
2004-04-29 15:49:00 51°14.569 2°54.221 12.193533 3.636919 31.222193 68.01964
2004-04-29 15:50:00 51°14.508 2°54.551 12.397446 3.64503 31.137507 68.053349
2004-04-29 15:51:00 51°14.416 2°54.856 12.497181 3.635861 30.934284 68.087059
2004-04-29 15:52:00 51°14.321 2°55.138 12.405948 3.575694 30.325878 68.087059
2004-04-29 15:53:00 51°14.216 2°55.334 12.635983 3.401337 28.627808 68.053349
2004-04-29 15:54:00 51°14.116 2°55.443 12.617821 3.24672 27.129095 68.053349
2004-04-29 15:55:00 51°14.006 2°55.518 12.749309 3.191329 26.614537 68.087059
2004-04-29 15:56:00 51°13.896 2°55.594 13.030775 3.081089 25.529899 8.657383
2004-04-29 15:57:00 51°13.785 2°55.674 13.10966 3.078246 25.510711 6.803366
2004-04-29 15:58:00 51°13.711 2°55.798 13.147055 0.8657 5.487952 6.769657
2004-04-29 15:59:00 51°13.663 2°55.905 13.222006 0.624842 3.857509 6.769657
2004-04-29 16:00:00 51°13.627 2°55.992 13.305126 0.568048 3.504948 6.803366
2004-04-29 16:01:00 51°13.605 2°56.061 13.396075 0.544564 3.351584 6.837076
2004-04-29 16:02:00 51°13.596 2°56.094 13.48641 0.53298 3.282071 6.971913
2004-04-29 16:03:04 51°13.596 2°56.095 13.576669 0.52557 3.236831 7.039332
2004-04-29 16:04:04 51°13.597 2°56.097 13.653759 0.519831 3.1985 7.005623
2004-04-29 16:05:04 51°13.597 2°56.096 13.707793 0.515553 3.176855 6.971913